createdAt,value
2017-12-31T00:00:04.467Z,9.30
2017-12-31T00:02:31.935Z,9.40
2017-12-31T00:04:59.434Z,9.40
2017-12-31T00:07:27.068Z,9.40
2017-12-31T00:09:54.584Z,9.40
2017-12-31T00:12:22.084Z,9.40
2017-12-31T00:14:50.227Z,9.40
2017-12-31T00:17:17.702Z,9.40
2017-12-31T00:19:45.211Z,9.40
2017-12-31T00:22:12.778Z,9.40
2017-12-31T00:24:40.221Z,9.40
2017-12-31T00:27:07.983Z,9.50
2017-12-31T00:29:35.408Z,9.50
2017-12-31T00:32:04.537Z,9.60
2017-12-31T00:34:32.058Z,9.50
2017-12-31T00:37:00.312Z,9.60
2017-12-31T00:39:28.656Z,9.60
2017-12-31T00:41:56.129Z,9.60
2017-12-31T00:44:23.647Z,9.70
2017-12-31T00:46:55.698Z,9.70
2017-12-31T00:49:23.853Z,9.70
2017-12-31T00:51:51.326Z,9.70
2017-12-31T00:54:19.613Z,9.70
2017-12-31T00:56:47.375Z,9.60
2017-12-31T00:59:14.868Z,9.70
2017-12-31T01:01:46.900Z,9.80
2017-12-31T01:04:14.387Z,9.70
2017-12-31T01:06:42.072Z,9.70
2017-12-31T01:09:09.546Z,9.80
2017-12-31T01:11:37.654Z,9.70
2017-12-31T01:14:05.087Z,9.70
2017-12-31T01:16:32.612Z,9.70
2017-12-31T01:19:00.146Z,9.70
2017-12-31T01:21:28.275Z,9.70
2017-12-31T01:23:55.777Z,9.70
2017-12-31T01:26:23.244Z,9.70
2017-12-31T01:28:51.611Z,9.70
2017-12-31T01:31:19.081Z,9.70
2017-12-31T01:33:46.565Z,9.60
2017-12-31T01:36:14.029Z,9.60
2017-12-31T01:38:41.832Z,9.60
2017-12-31T01:41:09.273Z,9.60
2017-12-31T01:43:36.716Z,9.60
2017-12-31T01:46:05.011Z,9.50
2017-12-31T01:48:36.536Z,9.50
2017-12-31T01:51:04.184Z,9.50
2017-12-31T01:53:31.615Z,9.50
2017-12-31T01:55:59.992Z,9.50
2017-12-31T01:58:27.434Z,9.40
2017-12-31T02:00:54.904Z,9.40
2017-12-31T02:03:29.765Z,9.40
2017-12-31T02:05:57.247Z,9.40
2017-12-31T02:08:25.764Z,9.30
2017-12-31T02:10:53.244Z,9.30
2017-12-31T02:13:20.922Z,9.30
2017-12-31T02:15:48.405Z,9.30
2017-12-31T02:18:19.214Z,9.20
2017-12-31T02:20:46.673Z,9.20
2017-12-31T02:23:14.464Z,9.20
2017-12-31T02:25:41.905Z,9.20
2017-12-31T02:28:09.369Z,9.20
2017-12-31T02:30:36.829Z,9.20
2017-12-31T02:33:08.561Z,9.20
2017-12-31T02:35:36.000Z,9.30
2017-12-31T02:38:03.985Z,9.20
2017-12-31T02:40:31.449Z,9.20
2017-12-31T02:42:58.888Z,9.30
2017-12-31T02:45:26.376Z,9.30
2017-12-31T02:47:53.827Z,9.30
2017-12-31T02:50:21.648Z,9.30
2017-12-31T02:52:49.092Z,9.40
2017-12-31T02:55:16.548Z,9.40
2017-12-31T02:57:44.016Z,9.40
2017-12-31T03:00:12.396Z,9.40
2017-12-31T03:02:39.879Z,9.40
2017-12-31T03:05:07.316Z,9.40
2017-12-31T03:07:34.776Z,9.30
2017-12-31T03:10:02.240Z,9.30
2017-12-31T03:12:29.731Z,9.20
2017-12-31T03:14:57.189Z,9.30
2017-12-31T03:17:24.630Z,9.20
2017-12-31T03:19:52.105Z,9.30
2017-12-31T03:22:21.127Z,9.50
2017-12-31T03:24:48.739Z,9.60
2017-12-31T03:27:16.206Z,9.70
2017-12-31T03:29:43.708Z,9.90
2017-12-31T03:32:11.264Z,10.00
2017-12-31T03:34:38.841Z,10.20
2017-12-31T03:37:06.326Z,10.30
2017-12-31T03:39:34.249Z,10.30
2017-12-31T03:42:01.708Z,10.40
2017-12-31T03:44:29.177Z,10.40
2017-12-31T03:46:56.795Z,10.50
2017-12-31T03:49:28.031Z,10.50
2017-12-31T03:51:55.544Z,10.50
2017-12-31T03:54:24.460Z,10.60
2017-12-31T03:56:51.911Z,10.60
2017-12-31T03:59:19.376Z,10.60
2017-12-31T04:01:46.862Z,10.70
2017-12-31T04:04:14.307Z,10.70
2017-12-31T04:06:46.091Z,10.80
2017-12-31T04:09:13.556Z,10.80
2017-12-31T04:11:41.034Z,10.80
2017-12-31T04:14:08.472Z,10.80
2017-12-31T04:16:36.128Z,10.80
2017-12-31T04:19:04.471Z,10.80
2017-12-31T04:21:32.090Z,10.80
2017-12-31T04:23:59.568Z,10.90
2017-12-31T04:26:27.029Z,10.90
2017-12-31T04:28:54.495Z,10.90
2017-12-31T04:31:21.957Z,10.90
2017-12-31T04:33:49.439Z,10.90
2017-12-31T04:36:16.875Z,10.90
2017-12-31T04:38:44.404Z,10.90
2017-12-31T04:41:11.866Z,10.90
2017-12-31T04:43:40.036Z,11.00
2017-12-31T04:46:07.519Z,11.00
2017-12-31T04:48:34.980Z,10.90
2017-12-31T04:51:07.032Z,10.90
2017-12-31T04:53:35.023Z,10.90
2017-12-31T04:56:02.460Z,10.90
2017-12-31T04:58:29.938Z,10.90
2017-12-31T05:00:57.376Z,10.80
2017-12-31T05:03:24.864Z,10.80
2017-12-31T05:05:56.881Z,10.70
2017-12-31T05:08:24.384Z,10.60
2017-12-31T05:10:51.855Z,10.60
2017-12-31T05:13:19.304Z,10.50
2017-12-31T05:15:46.843Z,10.50
2017-12-31T05:18:14.316Z,10.40
2017-12-31T05:20:42.078Z,10.30
2017-12-31T05:23:09.540Z,10.30
2017-12-31T05:25:36.987Z,10.30
2017-12-31T05:28:04.471Z,10.30
2017-12-31T05:30:33.611Z,10.30
2017-12-31T05:33:01.071Z,10.30
2017-12-31T05:35:28.544Z,10.30
2017-12-31T05:37:56.026Z,10.30
2017-12-31T05:40:24.250Z,10.30
2017-12-31T05:42:52.553Z,10.30
2017-12-31T05:45:20.008Z,10.30
2017-12-31T05:47:47.644Z,10.30
2017-12-31T05:50:15.225Z,10.30
2017-12-31T05:52:46.067Z,10.30
2017-12-31T05:55:13.523Z,10.30
2017-12-31T05:57:41.260Z,10.30
2017-12-31T06:00:08.804Z,10.30
2017-12-31T06:02:36.268Z,10.40
2017-12-31T06:05:03.736Z,10.30
2017-12-31T06:07:31.178Z,10.30
2017-12-31T06:09:58.648Z,10.30
2017-12-31T06:12:26.088Z,10.20
2017-12-31T06:14:53.583Z,10.20
2017-12-31T06:17:21.056Z,10.10
2017-12-31T06:19:48.500Z,10.20
2017-12-31T06:22:16.021Z,10.10
2017-12-31T06:24:44.840Z,10.10
2017-12-31T06:27:12.312Z,10.10
2017-12-31T06:29:39.797Z,10.20
2017-12-31T06:32:07.261Z,10.20
2017-12-31T06:34:34.708Z,10.30
2017-12-31T06:37:06.452Z,10.30
2017-12-31T06:39:33.912Z,10.30
2017-12-31T06:42:01.381Z,10.30
2017-12-31T06:44:28.827Z,10.40
2017-12-31T06:46:56.274Z,10.40
2017-12-31T06:49:23.774Z,10.40
2017-12-31T06:51:51.222Z,10.50
2017-12-31T06:54:18.696Z,10.50
2017-12-31T06:56:47.708Z,10.50
2017-12-31T06:59:15.167Z,10.50
2017-12-31T07:01:42.648Z,10.60
2017-12-31T07:04:10.119Z,10.60
2017-12-31T07:06:38.336Z,10.60
2017-12-31T07:09:05.856Z,10.60
2017-12-31T07:11:33.449Z,10.60
2017-12-31T07:14:00.969Z,10.70
2017-12-31T07:16:28.424Z,10.80
2017-12-31T07:18:57.033Z,10.80
2017-12-31T07:21:25.228Z,10.80
2017-12-31T07:23:52.685Z,10.80
2017-12-31T07:26:20.186Z,10.90
2017-12-31T07:28:47.632Z,10.90
2017-12-31T07:31:15.111Z,10.90
2017-12-31T07:33:42.556Z,10.90
2017-12-31T07:36:10.033Z,10.90
2017-12-31T07:38:49.171Z,11.00
2017-12-31T07:41:16.615Z,11.00
2017-12-31T07:43:44.360Z,11.00
2017-12-31T07:46:11.880Z,11.10
2017-12-31T07:48:40.031Z,11.10
2017-12-31T07:51:08.252Z,11.10
2017-12-31T07:53:39.480Z,11.10
2017-12-31T07:56:06.973Z,11.10
2017-12-31T07:58:35.516Z,11.10
2017-12-31T08:01:02.977Z,11.10
2017-12-31T08:03:30.459Z,11.10
2017-12-31T08:05:58.129Z,11.20
2017-12-31T08:08:25.575Z,11.20
2017-12-31T08:10:53.043Z,11.20
2017-12-31T08:13:20.576Z,11.20
2017-12-31T08:15:48.608Z,11.30
2017-12-31T08:18:16.052Z,11.40
2017-12-31T08:20:43.595Z,11.40
2017-12-31T08:23:11.046Z,11.50
2017-12-31T08:25:41.576Z,11.50
2017-12-31T08:28:09.015Z,11.60
2017-12-31T08:30:36.492Z,11.70
2017-12-31T08:33:03.948Z,11.80
2017-12-31T08:35:31.410Z,11.90
2017-12-31T08:37:58.848Z,11.90
2017-12-31T08:40:30.926Z,11.90
2017-12-31T08:42:58.408Z,12.00
2017-12-31T08:45:25.864Z,12.00
2017-12-31T08:47:53.329Z,12.00
2017-12-31T08:50:20.819Z,11.90
2017-12-31T08:52:48.320Z,11.80
2017-12-31T08:55:19.470Z,11.80
2017-12-31T08:57:47.006Z,11.80
2017-12-31T09:00:14.575Z,11.90
2017-12-31T09:02:42.044Z,11.90
2017-12-31T09:05:09.490Z,11.80
2017-12-31T09:07:36.972Z,11.70
2017-12-31T09:10:04.601Z,11.50
2017-12-31T09:12:32.044Z,11.50
2017-12-31T09:14:59.643Z,11.40
2017-12-31T09:17:27.123Z,11.30
2017-12-31T09:19:55.171Z,11.30
2017-12-31T09:22:22.628Z,11.20
2017-12-31T09:24:59.528Z,11.20
2017-12-31T09:27:26.980Z,11.10
2017-12-31T09:29:54.439Z,11.20
2017-12-31T09:32:21.916Z,11.20
2017-12-31T09:34:49.376Z,11.20
2017-12-31T09:37:17.037Z,11.20
2017-12-31T09:39:44.851Z,11.40
2017-12-31T09:42:13.097Z,11.60
2017-12-31T09:44:40.635Z,11.50
2017-12-31T09:47:08.077Z,11.70
2017-12-31T09:49:35.580Z,11.80
2017-12-31T09:52:03.992Z,11.90
2017-12-31T09:54:31.412Z,12.00
2017-12-31T09:56:58.872Z,12.10
2017-12-31T09:59:26.319Z,12.10
2017-12-31T10:01:53.916Z,12.10
2017-12-31T10:04:21.371Z,12.10
2017-12-31T10:06:49.595Z,12.00
2017-12-31T10:09:17.436Z,12.00
2017-12-31T10:11:44.919Z,12.00
2017-12-31T10:14:12.367Z,12.00
2017-12-31T10:16:39.891Z,12.10
2017-12-31T10:19:07.760Z,12.10
2017-12-31T10:21:35.203Z,12.10
2017-12-31T10:24:02.680Z,12.10
2017-12-31T10:26:33.599Z,12.00
2017-12-31T10:29:01.263Z,12.00
2017-12-31T10:31:28.793Z,11.90
2017-12-31T10:33:56.277Z,11.90
2017-12-31T10:36:23.746Z,12.00
2017-12-31T10:38:51.188Z,12.30
2017-12-31T10:41:22.095Z,12.60
2017-12-31T10:43:49.548Z,12.90
2017-12-31T10:46:17.196Z,13.20
2017-12-31T10:48:46.004Z,13.40
2017-12-31T10:51:13.493Z,13.40
2017-12-31T10:53:40.928Z,13.50
2017-12-31T10:56:08.372Z,13.50
2017-12-31T10:58:35.844Z,13.60
2017-12-31T11:01:03.291Z,13.60
2017-12-31T11:03:30.783Z,13.60
2017-12-31T11:05:58.263Z,13.50
2017-12-31T11:08:25.761Z,13.50
2017-12-31T11:10:53.686Z,13.40
2017-12-31T11:13:21.174Z,13.40
2017-12-31T11:15:48.643Z,13.30
2017-12-31T11:18:16.092Z,13.30
2017-12-31T11:20:43.603Z,13.30
2017-12-31T11:23:11.106Z,13.20
2017-12-31T11:25:38.820Z,13.30
2017-12-31T11:28:07.092Z,13.20
2017-12-31T11:30:34.553Z,13.10
2017-12-31T11:33:02.006Z,13.20
2017-12-31T11:35:29.717Z,13.20
2017-12-31T11:37:57.198Z,13.30
2017-12-31T11:40:24.644Z,13.30
2017-12-31T11:42:52.087Z,13.30
2017-12-31T11:45:19.598Z,13.20
2017-12-31T11:47:47.809Z,13.20
2017-12-31T11:50:16.406Z,13.20
2017-12-31T11:52:43.915Z,13.20
2017-12-31T11:55:11.421Z,13.20
2017-12-31T11:57:38.859Z,13.20
2017-12-31T12:00:06.572Z,13.20
2017-12-31T12:02:34.563Z,13.20
2017-12-31T12:05:02.032Z,13.20
2017-12-31T12:07:29.476Z,13.20
2017-12-31T12:09:57.293Z,13.20
2017-12-31T12:12:24.784Z,13.20
2017-12-31T12:14:52.267Z,13.20
2017-12-31T12:17:20.019Z,13.10
2017-12-31T12:19:47.532Z,13.10
2017-12-31T12:22:14.978Z,13.10
2017-12-31T12:24:43.783Z,13.10
2017-12-31T12:27:11.241Z,13.10
2017-12-31T12:29:42.505Z,13.10
2017-12-31T12:32:10.193Z,13.00
2017-12-31T12:34:37.632Z,13.00
2017-12-31T12:37:05.102Z,12.90
2017-12-31T12:39:33.325Z,13.00
2017-12-31T12:42:00.789Z,13.00
2017-12-31T12:44:28.220Z,13.00
2017-12-31T12:46:55.683Z,13.00
2017-12-31T12:49:24.015Z,13.10
2017-12-31T12:51:51.634Z,13.00
2017-12-31T12:54:19.071Z,13.00
2017-12-31T12:56:47.299Z,12.90
2017-12-31T12:59:14.842Z,12.90
2017-12-31T13:01:42.520Z,12.90
2017-12-31T13:04:11.680Z,12.90
2017-12-31T13:06:39.933Z,12.90
2017-12-31T13:09:08.975Z,12.90
2017-12-31T13:11:36.415Z,12.90
2017-12-31T13:14:07.558Z,12.90
2017-12-31T13:16:36.731Z,12.90
2017-12-31T13:19:04.193Z,12.90
2017-12-31T13:21:31.689Z,12.80
2017-12-31T13:23:59.140Z,12.90
2017-12-31T13:26:26.674Z,12.90
2017-12-31T13:28:55.617Z,12.90
2017-12-31T13:31:26.424Z,12.90
2017-12-31T13:33:53.864Z,12.90
2017-12-31T13:36:21.352Z,13.00
2017-12-31T13:38:50.524Z,12.80
2017-12-31T13:41:17.981Z,12.80
2017-12-31T13:43:45.473Z,12.70
2017-12-31T13:46:12.912Z,12.70
2017-12-31T13:48:40.554Z,12.70
2017-12-31T13:51:07.983Z,12.80
2017-12-31T13:53:35.517Z,12.90
2017-12-31T13:56:03.675Z,13.00
2017-12-31T13:58:31.180Z,13.10
2017-12-31T14:00:58.698Z,13.10
2017-12-31T14:03:26.182Z,13.20
2017-12-31T14:05:53.658Z,13.20
2017-12-31T14:08:21.108Z,13.20
2017-12-31T14:10:48.552Z,13.20
2017-12-31T14:13:16.836Z,13.10
2017-12-31T14:15:47.911Z,13.10
2017-12-31T14:18:15.390Z,13.10
2017-12-31T14:20:42.883Z,13.00
2017-12-31T14:23:10.365Z,13.00
2017-12-31T14:25:38.050Z,13.00
2017-12-31T14:28:05.528Z,12.90
2017-12-31T14:30:33.265Z,12.90
2017-12-31T14:33:02.099Z,12.80
2017-12-31T14:35:29.535Z,12.80
2017-12-31T14:37:56.994Z,12.80
2017-12-31T14:40:24.639Z,12.80
2017-12-31T14:42:52.164Z,12.70
2017-12-31T14:45:25.235Z,12.50
2017-12-31T14:47:52.692Z,12.50
2017-12-31T14:50:21.076Z,12.40
2017-12-31T14:52:48.536Z,12.40
2017-12-31T14:55:15.984Z,12.20
2017-12-31T14:57:43.627Z,12.20
2017-12-31T15:00:11.150Z,12.20
2017-12-31T15:02:46.079Z,12.20
2017-12-31T15:05:13.561Z,12.20
2017-12-31T15:07:41.148Z,12.20
2017-12-31T15:10:08.665Z,12.20
2017-12-31T15:12:36.170Z,12.20
2017-12-31T15:15:06.037Z,12.10
2017-12-31T15:17:34.781Z,12.00
2017-12-31T15:20:02.601Z,12.00
2017-12-31T15:22:30.051Z,12.00
2017-12-31T15:24:57.559Z,11.80
2017-12-31T15:27:25.772Z,11.50
2017-12-31T15:29:53.278Z,11.50
2017-12-31T15:32:20.755Z,11.50
2017-12-31T15:34:49.430Z,11.40
2017-12-31T15:37:17.131Z,11.20
2017-12-31T15:39:44.582Z,11.10
2017-12-31T15:42:12.077Z,10.90
2017-12-31T15:44:39.709Z,10.80
2017-12-31T15:47:11.629Z,10.60
2017-12-31T15:49:39.110Z,10.60
2017-12-31T15:52:06.618Z,10.60
2017-12-31T15:54:34.454Z,10.40
2017-12-31T15:57:01.898Z,10.50
2017-12-31T15:59:29.413Z,10.40
2017-12-31T16:01:56.874Z,10.30
2017-12-31T16:04:24.373Z,10.20
2017-12-31T16:06:53.404Z,10.10
2017-12-31T16:09:20.916Z,10.10
2017-12-31T16:11:48.520Z,10.10
2017-12-31T16:14:16.002Z,10.00
2017-12-31T16:16:47.266Z,9.80
2017-12-31T16:19:14.771Z,9.80
2017-12-31T16:21:42.257Z,9.70
2017-12-31T16:24:09.791Z,9.70
2017-12-31T16:26:37.283Z,9.60
2017-12-31T16:29:06.496Z,9.60
2017-12-31T16:31:34.943Z,9.60
2017-12-31T16:34:02.422Z,9.60
2017-12-31T16:36:29.923Z,9.60
2017-12-31T16:38:57.523Z,9.60
2017-12-31T16:41:25.131Z,9.50
2017-12-31T16:43:52.633Z,9.40
2017-12-31T16:46:20.670Z,9.30
2017-12-31T16:48:48.161Z,9.30
2017-12-31T16:51:15.620Z,9.30
2017-12-31T16:53:43.089Z,9.30
2017-12-31T16:56:10.531Z,9.30
2017-12-31T16:58:37.988Z,9.20
2017-12-31T17:01:05.453Z,9.10
2017-12-31T17:03:32.888Z,9.10
2017-12-31T17:06:00.535Z,9.10
2017-12-31T17:08:28.461Z,9.00
2017-12-31T17:10:55.936Z,9.00
2017-12-31T17:13:23.590Z,8.90
2017-12-31T17:15:51.075Z,8.90
2017-12-31T17:18:21.955Z,8.90
2017-12-31T17:20:49.438Z,9.00
2017-12-31T17:23:17.851Z,9.00
2017-12-31T17:25:45.333Z,8.80
2017-12-31T17:28:12.834Z,8.70
2017-12-31T17:30:41.157Z,8.70
2017-12-31T17:33:12.030Z,8.70
2017-12-31T17:35:39.671Z,8.60
2017-12-31T17:38:07.665Z,8.40
2017-12-31T17:40:35.127Z,8.50
2017-12-31T17:43:03.408Z,8.40
2017-12-31T17:45:32.598Z,8.40
2017-12-31T17:48:00.205Z,8.30
2017-12-31T17:50:27.689Z,8.30
2017-12-31T17:52:55.263Z,8.30
2017-12-31T17:55:22.732Z,8.30
2017-12-31T17:57:50.381Z,8.30
2017-12-31T18:00:17.897Z,8.30
2017-12-31T18:02:46.809Z,8.30
2017-12-31T18:05:14.275Z,8.30
2017-12-31T18:07:41.772Z,8.30
2017-12-31T18:10:09.253Z,8.20
2017-12-31T18:12:37.482Z,8.20
2017-12-31T18:15:05.131Z,8.20
2017-12-31T18:17:32.639Z,8.10
2017-12-31T18:20:00.109Z,8.20
2017-12-31T18:22:27.580Z,8.20
2017-12-31T18:24:55.054Z,8.10
2017-12-31T18:27:22.583Z,8.10
2017-12-31T18:29:50.054Z,8.00
2017-12-31T18:32:17.601Z,7.90
2017-12-31T18:34:49.400Z,7.80
2017-12-31T18:37:16.888Z,7.70
2017-12-31T18:39:44.539Z,7.70
2017-12-31T18:44:45.756Z,7.70
2017-12-31T18:47:14.150Z,7.80
2017-12-31T18:49:41.675Z,7.90
2017-12-31T18:52:09.164Z,7.80
2017-12-31T18:54:36.759Z,7.80
2017-12-31T18:57:04.283Z,7.70
2017-12-31T18:59:31.810Z,7.70
2017-12-31T19:01:59.393Z,7.70
2017-12-31T19:04:28.410Z,7.70
2017-12-31T19:06:55.840Z,7.70
2017-12-31T19:09:23.313Z,7.70
2017-12-31T19:11:50.780Z,7.60
2017-12-31T19:14:18.298Z,7.70
2017-12-31T19:16:45.938Z,7.60
2017-12-31T19:19:14.168Z,7.80
2017-12-31T19:21:41.678Z,7.70
2017-12-31T19:24:09.911Z,7.70
2017-12-31T19:26:37.376Z,7.70
2017-12-31T19:29:04.885Z,7.60
2017-12-31T19:31:32.490Z,7.50
2017-12-31T19:34:00.819Z,7.60
2017-12-31T19:36:28.323Z,7.70
2017-12-31T19:38:55.845Z,7.70
2017-12-31T19:41:23.363Z,7.60
2017-12-31T19:43:51.147Z,7.60
2017-12-31T19:46:18.908Z,7.50
2017-12-31T19:48:46.379Z,7.40
2017-12-31T19:51:14.600Z,7.40
2017-12-31T19:53:42.110Z,7.40
2017-12-31T19:56:09.637Z,7.40
2017-12-31T19:58:37.133Z,7.40
2017-12-31T20:01:04.616Z,7.50
2017-12-31T20:03:32.317Z,7.60
2017-12-31T20:05:59.982Z,7.70
2017-12-31T20:08:28.442Z,7.70
2017-12-31T20:10:56.056Z,7.70
2017-12-31T20:13:23.888Z,7.60
2017-12-31T20:15:51.418Z,7.50
2017-12-31T20:18:18.927Z,7.50
2017-12-31T20:20:46.368Z,7.50
2017-12-31T20:23:13.957Z,7.50
2017-12-31T20:25:42.506Z,7.40
2017-12-31T20:28:10.044Z,7.40
2017-12-31T20:30:37.574Z,7.30
2017-12-31T20:33:05.468Z,7.20
2017-12-31T20:35:32.988Z,7.10
2017-12-31T20:38:01.301Z,7.00
2017-12-31T20:40:28.961Z,7.00
2017-12-31T20:42:57.183Z,7.20
2017-12-31T20:45:24.748Z,7.20
2017-12-31T20:47:52.208Z,7.20
2017-12-31T20:50:20.248Z,7.20
2017-12-31T20:52:48.500Z,7.20
2017-12-31T20:55:16.057Z,7.20
2017-12-31T20:57:43.690Z,7.10
2017-12-31T21:00:11.210Z,7.10
2017-12-31T21:02:39.517Z,7.10
2017-12-31T21:05:07.047Z,7.20
2017-12-31T21:07:34.514Z,7.20
2017-12-31T21:10:01.948Z,7.20
2017-12-31T21:12:29.511Z,7.30
2017-12-31T21:14:56.969Z,7.20
2017-12-31T21:17:25.250Z,7.20
2017-12-31T21:19:53.054Z,7.20
2017-12-31T21:22:27.533Z,7.20
2017-12-31T21:24:55.058Z,7.20
2017-12-31T21:27:22.558Z,7.20
2017-12-31T21:29:50.811Z,7.10
2017-12-31T21:32:18.561Z,7.10
2017-12-31T21:34:46.044Z,7.20
2017-12-31T21:37:13.538Z,7.10
2017-12-31T21:39:41.109Z,7.10
2017-12-31T21:42:08.622Z,7.10
2017-12-31T21:44:36.194Z,7.10
2017-12-31T21:47:03.624Z,7.20
2017-12-31T21:49:32.027Z,7.20
2017-12-31T21:51:59.515Z,7.20
2017-12-31T21:54:26.990Z,7.20
2017-12-31T21:56:54.551Z,7.20
2017-12-31T21:59:22.066Z,7.20
2017-12-31T22:01:49.567Z,7.00
2017-12-31T22:04:17.038Z,6.90
2017-12-31T22:06:46.930Z,6.90
2017-12-31T22:09:16.173Z,6.90
2017-12-31T22:11:43.693Z,6.90
2017-12-31T22:14:11.120Z,6.90
2017-12-31T22:16:38.684Z,7.00
2017-12-31T22:19:06.396Z,7.00
2017-12-31T22:21:33.903Z,7.00
2017-12-31T22:24:01.395Z,7.10
2017-12-31T22:26:29.045Z,7.20
2017-12-31T22:28:56.561Z,7.10
2017-12-31T22:31:24.569Z,7.10
2017-12-31T22:33:52.057Z,7.10
2017-12-31T22:36:19.580Z,7.00
2017-12-31T22:38:51.290Z,7.00
2017-12-31T22:41:19.724Z,7.00
2017-12-31T22:43:47.180Z,7.10
2017-12-31T22:46:14.740Z,7.20
2017-12-31T22:48:42.255Z,7.10
2017-12-31T22:51:09.734Z,7.10
2017-12-31T22:53:40.335Z,7.10
2017-12-31T22:56:07.984Z,7.10
2017-12-31T22:58:35.503Z,7.10
2017-12-31T23:01:04.231Z,7.00
2017-12-31T23:03:31.736Z,7.00
2017-12-31T23:05:59.221Z,7.00
2017-12-31T23:08:30.047Z,7.10
2017-12-31T23:10:57.559Z,7.20
2017-12-31T23:13:25.925Z,7.30
2017-12-31T23:15:54.169Z,7.40
2017-12-31T23:18:21.687Z,7.40
2017-12-31T23:20:49.194Z,7.40
2017-12-31T23:23:17.628Z,7.40
2017-12-31T23:25:48.599Z,7.40
2017-12-31T23:28:16.135Z,7.40
2017-12-31T23:30:43.767Z,7.50
2017-12-31T23:33:11.220Z,7.60
2017-12-31T23:35:38.668Z,7.70
2017-12-31T23:38:07.051Z,7.70
2017-12-31T23:40:35.578Z,7.80
2017-12-31T23:43:03.039Z,7.80
2017-12-31T23:45:31.310Z,8.00
2017-12-31T23:47:58.815Z,8.00
2017-12-31T23:50:27.098Z,8.00
2017-12-31T23:52:54.622Z,8.00
2017-12-31T23:55:22.204Z,8.00
2017-12-31T23:57:50.729Z,8.00
